createdAt,value
2023-04-19T00:04:30.997Z,102018.06
2023-04-19T00:09:35.174Z,102015.19
2023-04-19T00:14:40.492Z,101982.53
2023-04-19T00:19:45.082Z,102017.41
2023-04-19T00:24:50.711Z,102016.34
2023-04-19T00:29:54.932Z,101995.22
2023-04-19T00:34:59.076Z,102007.59
2023-04-19T00:40:05.242Z,102015.53
2023-04-19T00:45:12.504Z,101998.88
2023-04-19T00:50:18.403Z,101978.53
2023-04-19T00:55:24.473Z,102005.75
2023-04-19T01:00:28.525Z,102005.94
2023-04-19T01:05:33.686Z,102018.50
2023-04-19T01:10:38.798Z,102009.94
2023-04-19T01:15:42.996Z,102022.13
2023-04-19T01:20:48.369Z,102001.25
2023-04-19T01:25:53.743Z,102012.38
2023-04-19T01:31:00.535Z,101997.53
2023-04-19T01:36:06.330Z,102001.22
2023-04-19T01:41:12.614Z,102016.78
2023-04-19T01:46:18.588Z,102013.84
2023-04-19T01:51:23.944Z,101996.94
2023-04-19T01:56:28.413Z,102001.38
2023-04-19T02:01:33.644Z,101992.59
2023-04-19T02:06:37.785Z,101999.09
2023-04-19T02:11:43.138Z,101989.41
2023-04-19T02:16:50.136Z,102021.00
2023-04-19T02:21:58.466Z,101991.50
2023-04-19T02:27:03.896Z,102009.09
2023-04-19T02:32:12.948Z,102015.22
2023-04-19T02:37:19.012Z,102006.53
2023-04-19T02:42:24.673Z,102001.97
2023-04-19T02:47:31.968Z,102003.03
2023-04-19T02:52:36.166Z,101987.06
2023-04-19T02:57:40.351Z,101988.25
2023-04-19T03:02:49.144Z,101996.16
2023-04-19T03:07:54.763Z,101996.78
2023-04-19T03:13:00.434Z,102002.38
2023-04-19T03:18:05.690Z,102003.88
2023-04-19T03:23:11.976Z,102001.56
2023-04-19T03:28:18.412Z,102016.28
2023-04-19T03:33:41.248Z,102008.44
2023-04-19T03:38:49.239Z,102008.84
2023-04-19T03:43:58.270Z,102003.22
2023-04-19T03:49:03.595Z,101997.44
2023-04-19T03:54:08.029Z,101999.72
2023-04-19T03:59:12.244Z,101999.94
2023-04-19T04:04:17.726Z,101995.38
2023-04-19T04:09:23.011Z,101987.81
2023-04-19T04:14:27.880Z,101986.06
2023-04-19T04:19:32.114Z,101975.63
2023-04-19T04:24:41.960Z,101971.50
2023-04-19T04:29:57.628Z,101970.81
2023-04-19T04:35:05.678Z,101976.41
2023-04-19T04:40:22.231Z,101963.16
2023-04-19T04:45:26.617Z,101956.00
2023-04-19T04:50:30.945Z,101962.91
2023-04-19T04:55:36.975Z,101978.13
2023-04-19T05:00:41.381Z,101963.50
2023-04-19T05:05:47.269Z,101954.13
2023-04-19T05:10:51.747Z,101954.25
2023-04-19T05:15:58.719Z,101960.63
2023-04-19T05:21:02.973Z,101949.41
2023-04-19T05:26:13.133Z,101945.16
2023-04-19T05:31:18.772Z,101949.75
2023-04-19T05:36:39.105Z,101939.38
2023-04-19T05:41:43.425Z,101947.91
2023-04-19T05:46:47.655Z,101914.97
2023-04-19T05:51:58.275Z,101944.91
2023-04-19T05:57:12.541Z,101933.81
2023-04-19T06:02:16.975Z,101943.34
2023-04-19T06:07:31.177Z,101940.19
2023-04-19T06:12:42.117Z,101943.53
2023-04-19T06:17:46.348Z,101944.34
2023-04-19T06:22:50.494Z,101942.69
2023-04-19T06:27:54.650Z,101936.97
2023-04-19T06:33:01.517Z,101927.38
2023-04-19T06:38:08.267Z,101918.63
2023-04-19T06:43:17.352Z,101937.00
2023-04-19T06:48:24.800Z,101927.22
2023-04-19T06:53:28.960Z,101921.69
2023-04-19T06:58:34.941Z,101926.78
2023-04-19T07:03:40.030Z,101920.03
2023-04-19T07:13:52.658Z,101890.97
2023-04-19T07:18:57.942Z,101913.47
2023-04-19T07:24:02.484Z,101897.34
2023-04-19T07:29:06.652Z,101884.09
2023-04-19T07:34:11.250Z,101892.97
2023-04-19T07:39:15.309Z,101890.09
2023-04-19T07:44:19.704Z,101876.66
2023-04-19T07:49:24.496Z,101863.41
2023-04-19T07:54:29.145Z,101865.22
2023-04-19T07:59:33.985Z,101876.50
2023-04-19T08:04:38.624Z,101885.00
2023-04-19T08:09:43.061Z,101877.28
2023-04-19T08:14:59.375Z,101875.38
2023-04-19T08:20:12.092Z,101861.16
2023-04-19T08:25:17.203Z,101855.84
2023-04-19T08:30:21.794Z,101850.38
2023-04-19T08:35:26.015Z,101860.28
2023-04-19T08:40:32.201Z,101837.31
2023-04-19T08:45:37.361Z,101832.72
2023-04-19T08:50:56.042Z,101827.78
2023-04-19T08:56:20.782Z,101837.22
2023-04-19T09:01:34.609Z,101800.16
2023-04-19T09:06:41.896Z,101826.19
2023-04-19T09:11:47.101Z,101825.78
2023-04-19T09:16:52.923Z,101816.91
2023-04-19T09:21:59.830Z,101792.63
2023-04-19T09:27:11.080Z,101803.22
2023-04-19T09:32:15.545Z,101795.81
2023-04-19T09:37:35.084Z,101794.91
2023-04-19T09:43:14.962Z,101783.50
2023-04-19T09:48:13.676Z,101782.63
2023-04-19T09:53:20.147Z,101786.81
2023-04-19T09:58:34.317Z,101784.91
2023-04-19T10:03:48.799Z,101785.88
2023-04-19T10:08:57.331Z,101784.31
2023-04-19T10:14:04.998Z,101779.75
2023-04-19T10:19:12.155Z,101778.81
2023-04-19T10:24:19.207Z,101765.75
2023-04-19T10:30:05.042Z,101764.44
2023-04-19T10:35:18.294Z,101764.47
2023-04-19T10:41:00.963Z,101755.59
2023-04-19T10:46:25.078Z,101754.50
2023-04-19T10:51:37.043Z,101745.44
2023-04-19T10:56:41.942Z,101753.06
2023-04-19T11:01:46.977Z,101746.72
2023-04-19T11:06:54.259Z,101745.50
2023-04-19T11:12:11.369Z,101741.97
2023-04-19T11:17:26.270Z,101739.06
2023-04-19T11:22:35.488Z,101737.13
2023-04-19T11:27:47.162Z,101727.28
2023-04-19T11:32:54.000Z,101712.81
2023-04-19T11:37:59.518Z,101716.25
2023-04-19T11:43:05.578Z,101715.88
2023-04-19T11:48:16.837Z,101712.03
2023-04-19T11:53:25.553Z,101700.97
2023-04-19T11:58:32.743Z,101715.00
2023-04-19T12:03:43.448Z,101704.25
2023-04-19T12:08:50.511Z,101703.69
2023-04-19T12:14:14.932Z,101698.97
2023-04-19T12:19:23.938Z,101687.50
2023-04-19T12:24:28.239Z,101693.88
2023-04-19T12:29:32.244Z,101693.31
2023-04-19T12:34:36.426Z,101682.38
2023-04-19T12:39:43.286Z,101686.06
2023-04-19T12:44:47.309Z,101683.19
2023-04-19T12:49:51.809Z,101680.31
2023-04-19T12:54:56.704Z,101676.88
2023-04-19T13:00:00.955Z,101687.09
2023-04-19T13:05:08.486Z,101650.50
2023-04-19T13:10:13.079Z,101674.19
2023-04-19T13:15:17.926Z,101666.25
2023-04-19T13:20:22.579Z,101684.56
2023-04-19T13:25:27.430Z,101685.31
2023-04-19T13:30:32.621Z,101680.28
2023-04-19T13:35:40.374Z,101679.22
2023-04-19T13:40:46.580Z,101674.19
2023-04-19T13:45:51.600Z,101663.88
2023-04-19T13:50:57.603Z,101674.28
2023-04-19T13:56:05.067Z,101657.84
2023-04-19T14:01:09.609Z,101657.28
2023-04-19T14:06:13.835Z,101672.97
2023-04-19T14:11:18.514Z,101660.34
2023-04-19T14:16:25.911Z,101659.81
2023-04-19T14:21:32.038Z,101657.78
2023-04-19T14:26:38.847Z,101645.53
2023-04-19T14:31:43.701Z,101647.03
2023-04-19T14:36:49.552Z,101639.25
2023-04-19T14:41:55.106Z,101627.25
2023-04-19T14:46:59.280Z,101625.06
2023-04-19T14:52:04.562Z,101622.81
2023-04-19T14:57:08.843Z,101613.84
2023-04-19T15:02:13.976Z,101620.00
2023-04-19T15:07:18.160Z,101585.41
2023-04-19T15:12:22.281Z,101612.56
2023-04-19T15:17:26.899Z,101625.63
2023-04-19T15:22:31.440Z,101622.38
2023-04-19T15:27:37.849Z,101586.94
2023-04-19T15:32:45.013Z,101610.38
2023-04-19T15:37:51.636Z,101596.13
2023-04-19T15:42:56.499Z,101606.94
2023-04-19T15:48:03.796Z,101610.41
2023-04-19T15:53:10.732Z,101608.81
2023-04-19T15:58:17.585Z,101599.00
2023-04-19T16:03:22.011Z,101589.22
2023-04-19T16:08:26.809Z,101568.44
2023-04-19T16:13:31.523Z,101596.16
2023-04-19T16:18:38.064Z,101596.34
2023-04-19T16:23:44.592Z,101598.19
2023-04-19T16:28:54.081Z,101593.50
2023-04-19T16:33:58.433Z,101586.78
2023-04-19T16:39:02.625Z,101584.31
2023-04-19T16:44:07.018Z,101596.16
2023-04-19T16:49:11.814Z,101596.13
2023-04-19T16:54:16.182Z,101598.19
2023-04-19T16:59:20.294Z,101576.16
2023-04-19T17:04:25.799Z,101580.66
2023-04-19T17:09:30.516Z,101586.38
2023-04-19T17:14:37.796Z,101586.78
2023-04-19T17:19:41.647Z,101587.19
2023-04-19T17:24:45.548Z,101600.59
2023-04-19T17:29:51.526Z,101580.22
2023-04-19T17:34:56.743Z,101585.91
2023-04-19T17:40:01.013Z,101566.34
2023-04-19T17:45:11.258Z,101579.63
2023-04-19T17:50:16.044Z,101580.00
2023-04-19T17:55:20.288Z,101578.75
2023-04-19T18:00:24.775Z,101578.97
2023-04-19T18:05:29.060Z,101568.78
2023-04-19T18:10:33.484Z,101567.97
2023-04-19T18:15:37.678Z,101566.13
2023-04-19T18:20:41.904Z,101570.03
2023-04-19T18:25:54.251Z,101570.81
2023-04-19T18:30:58.460Z,101569.75
2023-04-19T18:36:02.556Z,101572.84
2023-04-19T18:41:06.792Z,101576.25
2023-04-19T18:46:11.161Z,101537.91
2023-04-19T18:51:15.184Z,101573.38
2023-04-19T18:56:19.310Z,101571.47
2023-04-19T19:01:23.682Z,101577.97
2023-04-19T19:06:29.278Z,101576.69
2023-04-19T19:11:51.781Z,101572.19
2023-04-19T19:17:03.078Z,101568.72
2023-04-19T19:22:22.351Z,101570.50
2023-04-19T19:27:35.559Z,101572.91
2023-04-19T19:32:41.427Z,101572.88
2023-04-19T19:37:46.915Z,101569.13
2023-04-19T19:42:52.692Z,101575.16
2023-04-19T19:48:25.745Z,101577.94
2023-04-19T19:53:33.049Z,101576.47
2023-04-19T19:58:49.653Z,101565.34
2023-04-19T20:03:59.585Z,101547.28
2023-04-19T20:09:05.484Z,101579.19
2023-04-19T20:14:11.352Z,101579.19
2023-04-19T20:19:17.455Z,101577.72
2023-04-19T20:24:22.991Z,101574.41
2023-04-19T20:29:28.579Z,101578.19
2023-04-19T20:34:34.448Z,101563.84
2023-04-19T20:39:40.041Z,101570.06
2023-04-19T20:44:45.412Z,101575.16
2023-04-19T20:49:51.237Z,101563.22
2023-04-19T20:54:57.591Z,101571.22
2023-04-19T21:00:03.056Z,101564.84
2023-04-19T21:05:17.096Z,101564.91
2023-04-19T21:10:25.244Z,101561.94
2023-04-19T21:15:30.885Z,101551.31
2023-04-19T21:20:44.404Z,101561.59
2023-04-19T21:25:56.786Z,101560.53
2023-04-19T21:31:02.157Z,101553.34
2023-04-19T21:36:07.713Z,101520.06
2023-04-19T21:41:13.153Z,101542.50
2023-04-19T21:46:18.522Z,101537.66
2023-04-19T21:51:23.816Z,101531.38
2023-04-19T21:56:29.491Z,101530.53
2023-04-19T22:01:35.170Z,101531.25
2023-04-19T22:06:41.236Z,101533.44
2023-04-19T22:11:46.767Z,101513.03
2023-04-19T22:16:52.264Z,101508.91
2023-04-19T22:21:57.764Z,101526.44
2023-04-19T22:27:03.615Z,101522.00
2023-04-19T22:32:09.233Z,101506.09
2023-04-19T22:37:14.608Z,101518.75
2023-04-19T22:42:20.139Z,101518.75
2023-04-19T22:47:26.021Z,101514.50
2023-04-19T22:52:31.641Z,101496.16
2023-04-19T22:57:37.446Z,101517.91
2023-04-19T23:02:42.844Z,101497.25
2023-04-19T23:07:50.145Z,101502.16
2023-04-19T23:12:55.518Z,101516.97
2023-04-19T23:18:02.688Z,101500.94
2023-04-19T23:23:08.584Z,101508.81
2023-04-19T23:28:14.037Z,101501.34
2023-04-19T23:33:19.475Z,101495.75
2023-04-19T23:38:24.877Z,101494.59
2023-04-19T23:43:30.232Z,101492.81
2023-04-19T23:48:35.935Z,101498.84
2023-04-19T23:53:41.410Z,101485.22
2023-04-19T23:58:46.789Z,101495.72
